sensor_id;sensor_type;location;lat;lon;timestamp;P1;durP1;ratioP1;P2;durP2;ratioP2
17026;SDS011;8630;50.500;12.164;2022-08-06T00:01:01;4.10;;;3.25;;
17026;SDS011;8630;50.500;12.164;2022-08-06T00:03:28;6.20;;;3.58;;
17026;SDS011;8630;50.500;12.164;2022-08-06T00:05:56;4.60;;;3.47;;
17026;SDS011;8630;50.500;12.164;2022-08-06T00:08:23;5.18;;;3.85;;
17026;SDS011;8630;50.500;12.164;2022-08-06T00:10:50;6.90;;;3.10;;
17026;SDS011;8630;50.500;12.164;2022-08-06T00:13:17;7.38;;;3.97;;
17026;SDS011;8630;50.500;12.164;2022-08-06T00:15:44;3.75;;;3.42;;
17026;SDS011;8630;50.500;12.164;2022-08-06T00:18:11;4.75;;;3.33;;
17026;SDS011;8630;50.500;12.164;2022-08-06T00:20:38;4.00;;;3.30;;
17026;SDS011;8630;50.500;12.164;2022-08-06T00:23:07;3.53;;;3.22;;
17026;SDS011;8630;50.500;12.164;2022-08-06T00:25:34;4.68;;;3.70;;
17026;SDS011;8630;50.500;12.164;2022-08-06T00:28:01;4.22;;;3.50;;
17026;SDS011;8630;50.500;12.164;2022-08-06T00:30:28;3.85;;;3.40;;
17026;SDS011;8630;50.500;12.164;2022-08-06T00:32:55;6.70;;;3.80;;
17026;SDS011;8630;50.500;12.164;2022-08-06T00:35:22;7.63;;;3.60;;
17026;SDS011;8630;50.500;12.164;2022-08-06T00:37:52;4.68;;;4.10;;
17026;SDS011;8630;50.500;12.164;2022-08-06T00:40:21;5.35;;;4.35;;
17026;SDS011;8630;50.500;12.164;2022-08-06T00:42:49;5.90;;;4.70;;
17026;SDS011;8630;50.500;12.164;2022-08-06T00:45:17;5.65;;;4.05;;
17026;SDS011;8630;50.500;12.164;2022-08-06T00:47:44;6.53;;;4.97;;
17026;SDS011;8630;50.500;12.164;2022-08-06T00:50:11;6.13;;;4.85;;
17026;SDS011;8630;50.500;12.164;2022-08-06T00:52:38;6.95;;;4.78;;
17026;SDS011;8630;50.500;12.164;2022-08-06T00:55:05;6.50;;;5.10;;
17026;SDS011;8630;50.500;12.164;2022-08-06T00:57:34;5.90;;;4.80;;
17026;SDS011;8630;50.500;12.164;2022-08-06T01:00:02;5.38;;;4.88;;
17026;SDS011;8630;50.500;12.164;2022-08-06T01:02:29;5.03;;;4.50;;
17026;SDS011;8630;50.500;12.164;2022-08-06T01:04:56;5.70;;;4.80;;
17026;SDS011;8630;50.500;12.164;2022-08-06T01:07:23;6.85;;;4.75;;
17026;SDS011;8630;50.500;12.164;2022-08-06T01:09:53;4.85;;;4.45;;
17026;SDS011;8630;50.500;12.164;2022-08-06T01:12:20;7.18;;;5.20;;
17026;SDS011;8630;50.500;12.164;2022-08-06T01:14:48;5.75;;;5.07;;
17026;SDS011;8630;50.500;12.164;2022-08-06T01:17:17;5.18;;;4.68;;
17026;SDS011;8630;50.500;12.164;2022-08-06T01:19:50;5.43;;;4.43;;
17026;SDS011;8630;50.500;12.164;2022-08-06T01:22:35;5.35;;;4.53;;
17026;SDS011;8630;50.500;12.164;2022-08-06T01:25:25;6.25;;;4.30;;
17026;SDS011;8630;50.500;12.164;2022-08-06T01:28:14;8.13;;;4.97;;
17026;SDS011;8630;50.500;12.164;2022-08-06T01:30:46;6.57;;;4.70;;
17026;SDS011;8630;50.500;12.164;2022-08-06T01:33:18;5.22;;;4.70;;
17026;SDS011;8630;50.500;12.164;2022-08-06T01:35:51;5.50;;;4.80;;
17026;SDS011;8630;50.500;12.164;2022-08-06T01:38:22;6.43;;;5.45;;
17026;SDS011;8630;50.500;12.164;2022-08-06T01:40:53;5.72;;;5.13;;
17026;SDS011;8630;50.500;12.164;2022-08-06T01:43:25;6.25;;;4.78;;
17026;SDS011;8630;50.500;12.164;2022-08-06T01:45:54;6.50;;;4.93;;
17026;SDS011;8630;50.500;12.164;2022-08-06T01:48:23;5.80;;;5.15;;
17026;SDS011;8630;50.500;12.164;2022-08-06T01:50:55;8.50;;;5.32;;
17026;SDS011;8630;50.500;12.164;2022-08-06T01:53:25;7.13;;;5.53;;
17026;SDS011;8630;50.500;12.164;2022-08-06T01:55:57;7.47;;;6.43;;
17026;SDS011;8630;50.500;12.164;2022-08-06T01:58:29;6.63;;;5.93;;
17026;SDS011;8630;50.500;12.164;2022-08-06T02:01:00;8.35;;;6.30;;
17026;SDS011;8630;50.500;12.164;2022-08-06T02:03:33;8.30;;;6.05;;
17026;SDS011;8630;50.500;12.164;2022-08-06T02:06:05;6.45;;;5.80;;
17026;SDS011;8630;50.500;12.164;2022-08-06T02:08:34;8.85;;;6.20;;
17026;SDS011;8630;50.500;12.164;2022-08-06T02:11:04;6.85;;;5.40;;
17026;SDS011;8630;50.500;12.164;2022-08-06T02:13:37;7.03;;;5.57;;
17026;SDS011;8630;50.500;12.164;2022-08-06T02:16:06;6.22;;;5.05;;
17026;SDS011;8630;50.500;12.164;2022-08-06T02:18:37;7.97;;;5.95;;
17026;SDS011;8630;50.500;12.164;2022-08-06T02:21:07;6.93;;;5.22;;
17026;SDS011;8630;50.500;12.164;2022-08-06T02:23:37;7.40;;;5.35;;
17026;SDS011;8630;50.500;12.164;2022-08-06T02:26:05;5.93;;;4.95;;
17026;SDS011;8630;50.500;12.164;2022-08-06T02:28:33;6.30;;;5.05;;
17026;SDS011;8630;50.500;12.164;2022-08-06T02:31:03;6.75;;;5.22;;
17026;SDS011;8630;50.500;12.164;2022-08-06T02:33:30;6.07;;;5.15;;
17026;SDS011;8630;50.500;12.164;2022-08-06T02:35:59;9.55;;;5.30;;
17026;SDS011;8630;50.500;12.164;2022-08-06T02:38:31;6.70;;;6.03;;
17026;SDS011;8630;50.500;12.164;2022-08-06T02:41:05;8.95;;;5.93;;
17026;SDS011;8630;50.500;12.164;2022-08-06T02:43:39;6.55;;;5.63;;
17026;SDS011;8630;50.500;12.164;2022-08-06T02:46:12;8.27;;;5.60;;
17026;SDS011;8630;50.500;12.164;2022-08-06T02:48:44;6.68;;;5.70;;
17026;SDS011;8630;50.500;12.164;2022-08-06T02:51:17;6.18;;;5.45;;
17026;SDS011;8630;50.500;12.164;2022-08-06T02:53:55;5.70;;;5.10;;
17026;SDS011;8630;50.500;12.164;2022-08-06T02:56:26;8.52;;;5.50;;
17026;SDS011;8630;50.500;12.164;2022-08-06T02:58:54;6.95;;;5.50;;
17026;SDS011;8630;50.500;12.164;2022-08-06T03:01:25;7.63;;;5.18;;
17026;SDS011;8630;50.500;12.164;2022-08-06T03:03:55;7.15;;;5.38;;
17026;SDS011;8630;50.500;12.164;2022-08-06T03:06:25;6.97;;;5.50;;
17026;SDS011;8630;50.500;12.164;2022-08-06T03:08:55;7.38;;;4.97;;
17026;SDS011;8630;50.500;12.164;2022-08-06T03:11:24;5.40;;;4.90;;
17026;SDS011;8630;50.500;12.164;2022-08-06T03:13:52;5.60;;;4.15;;
17026;SDS011;8630;50.500;12.164;2022-08-06T03:16:20;6.57;;;4.20;;
17026;SDS011;8630;50.500;12.164;2022-08-06T03:18:49;3.47;;;3.15;;
17026;SDS011;8630;50.500;12.164;2022-08-06T03:21:17;7.82;;;3.55;;
17026;SDS011;8630;50.500;12.164;2022-08-06T03:23:47;4.05;;;2.97;;
17026;SDS011;8630;50.500;12.164;2022-08-06T03:26:16;5.10;;;3.53;;
17026;SDS011;8630;50.500;12.164;2022-08-06T03:28:43;5.13;;;3.33;;
17026;SDS011;8630;50.500;12.164;2022-08-06T03:31:11;3.47;;;3.17;;
17026;SDS011;8630;50.500;12.164;2022-08-06T03:33:39;4.65;;;3.50;;
17026;SDS011;8630;50.500;12.164;2022-08-06T03:36:08;3.50;;;3.20;;
17026;SDS011;8630;50.500;12.164;2022-08-06T03:38:38;3.80;;;3.20;;
17026;SDS011;8630;50.500;12.164;2022-08-06T03:41:06;4.55;;;4.15;;
17026;SDS011;8630;50.500;12.164;2022-08-06T03:43:35;4.70;;;3.45;;
17026;SDS011;8630;50.500;12.164;2022-08-06T03:46:02;4.55;;;3.38;;
17026;SDS011;8630;50.500;12.164;2022-08-06T03:48:32;4.38;;;3.95;;
17026;SDS011;8630;50.500;12.164;2022-08-06T03:51:05;4.68;;;3.80;;
17026;SDS011;8630;50.500;12.164;2022-08-06T03:53:42;4.10;;;3.70;;
17026;SDS011;8630;50.500;12.164;2022-08-06T03:56:14;3.70;;;3.40;;
17026;SDS011;8630;50.500;12.164;2022-08-06T03:58:46;4.38;;;3.25;;
17026;SDS011;8630;50.500;12.164;2022-08-06T04:01:18;4.35;;;3.28;;
17026;SDS011;8630;50.500;12.164;2022-08-06T04:03:48;3.92;;;2.85;;
17026;SDS011;8630;50.500;12.164;2022-08-06T04:06:19;5.00;;;3.15;;
17026;SDS011;8630;50.500;12.164;2022-08-06T04:08:48;2.53;;;2.30;;
17026;SDS011;8630;50.500;12.164;2022-08-06T04:11:16;2.60;;;2.40;;
17026;SDS011;8630;50.500;12.164;2022-08-06T04:13:44;4.13;;;2.28;;
17026;SDS011;8630;50.500;12.164;2022-08-06T04:16:12;2.50;;;2.30;;
17026;SDS011;8630;50.500;12.164;2022-08-06T04:18:40;3.15;;;2.15;;
17026;SDS011;8630;50.500;12.164;2022-08-06T04:21:10;2.77;;;2.10;;
17026;SDS011;8630;50.500;12.164;2022-08-06T04:23:41;2.03;;;1.92;;
17026;SDS011;8630;50.500;12.164;2022-08-06T04:26:09;3.50;;;2.53;;
17026;SDS011;8630;50.500;12.164;2022-08-06T04:28:41;4.10;;;1.90;;
17026;SDS011;8630;50.500;12.164;2022-08-06T04:31:09;1.98;;;1.75;;
17026;SDS011;8630;50.500;12.164;2022-08-06T04:33:38;3.80;;;1.52;;
17026;SDS011;8630;50.500;12.164;2022-08-06T04:36:07;5.85;;;2.38;;
17026;SDS011;8630;50.500;12.164;2022-08-06T04:38:35;2.40;;;1.98;;
17026;SDS011;8630;50.500;12.164;2022-08-06T04:41:04;1.97;;;1.63;;
17026;SDS011;8630;50.500;12.164;2022-08-06T04:43:32;1.90;;;1.80;;
17026;SDS011;8630;50.500;12.164;2022-08-06T04:45:59;1.60;;;1.50;;
17026;SDS011;8630;50.500;12.164;2022-08-06T04:48:27;5.03;;;1.83;;
17026;SDS011;8630;50.500;12.164;2022-08-06T04:50:55;2.90;;;2.03;;
17026;SDS011;8630;50.500;12.164;2022-08-06T04:53:22;2.90;;;2.10;;
17026;SDS011;8630;50.500;12.164;2022-08-06T04:55:49;2.33;;;2.00;;
17026;SDS011;8630;50.500;12.164;2022-08-06T04:58:18;2.58;;;1.90;;
17026;SDS011;8630;50.500;12.164;2022-08-06T05:00:47;2.55;;;1.80;;
17026;SDS011;8630;50.500;12.164;2022-08-06T05:03:15;4.13;;;2.80;;
17026;SDS011;8630;50.500;12.164;2022-08-06T05:05:43;2.42;;;1.80;;
17026;SDS011;8630;50.500;12.164;2022-08-06T05:08:14;1.77;;;1.40;;
17026;SDS011;8630;50.500;12.164;2022-08-06T05:10:43;1.77;;;1.50;;
17026;SDS011;8630;50.500;12.164;2022-08-06T05:13:14;1.80;;;1.40;;
17026;SDS011;8630;50.500;12.164;2022-08-06T05:15:49;1.95;;;1.58;;
17026;SDS011;8630;50.500;12.164;2022-08-06T05:18:20;2.03;;;1.30;;
17026;SDS011;8630;50.500;12.164;2022-08-06T05:21:00;4.38;;;2.00;;
17026;SDS011;8630;50.500;12.164;2022-08-06T05:23:37;2.20;;;1.30;;
17026;SDS011;8630;50.500;12.164;2022-08-06T05:26:09;2.03;;;1.42;;
17026;SDS011;8630;50.500;12.164;2022-08-06T05:28:38;2.58;;;1.38;;
17026;SDS011;8630;50.500;12.164;2022-08-06T05:31:06;3.67;;;1.40;;
17026;SDS011;8630;50.500;12.164;2022-08-06T05:33:35;2.47;;;1.92;;
17026;SDS011;8630;50.500;12.164;2022-08-06T05:36:05;4.63;;;3.15;;
17026;SDS011;8630;50.500;12.164;2022-08-06T05:38:34;6.35;;;2.95;;
17026;SDS011;8630;50.500;12.164;2022-08-06T05:41:04;2.55;;;1.85;;
17026;SDS011;8630;50.500;12.164;2022-08-06T05:43:31;1.20;;;1.10;;
17026;SDS011;8630;50.500;12.164;2022-08-06T05:46:00;1.90;;;1.30;;
17026;SDS011;8630;50.500;12.164;2022-08-06T05:48:31;1.77;;;1.20;;
17026;SDS011;8630;50.500;12.164;2022-08-06T05:51:05;3.78;;;1.50;;
17026;SDS011;8630;50.500;12.164;2022-08-06T05:53:40;2.85;;;1.80;;
17026;SDS011;8630;50.500;12.164;2022-08-06T05:56:10;1.27;;;1.10;;
17026;SDS011;8630;50.500;12.164;2022-08-06T05:58:43;3.75;;;2.20;;
17026;SDS011;8630;50.500;12.164;2022-08-06T06:01:16;2.90;;;1.70;;
17026;SDS011;8630;50.500;12.164;2022-08-06T06:03:45;2.28;;;1.40;;
17026;SDS011;8630;50.500;12.164;2022-08-06T06:06:13;2.50;;;1.83;;
17026;SDS011;8630;50.500;12.164;2022-08-06T06:08:40;3.45;;;2.75;;
17026;SDS011;8630;50.500;12.164;2022-08-06T06:11:08;1.45;;;1.25;;
17026;SDS011;8630;50.500;12.164;2022-08-06T06:13:36;2.67;;;1.10;;
17026;SDS011;8630;50.500;12.164;2022-08-06T06:16:06;1.75;;;1.20;;
17026;SDS011;8630;50.500;12.164;2022-08-06T06:18:47;1.08;;;1.02;;
17026;SDS011;8630;50.500;12.164;2022-08-06T06:21:24;4.30;;;2.83;;
17026;SDS011;8630;50.500;12.164;2022-08-06T06:24:01;2.80;;;1.70;;
17026;SDS011;8630;50.500;12.164;2022-08-06T06:26:35;7.43;;;3.17;;
17026;SDS011;8630;50.500;12.164;2022-08-06T06:29:10;1.48;;;1.38;;
17026;SDS011;8630;50.500;12.164;2022-08-06T06:31:44;5.07;;;3.13;;
17026;SDS011;8630;50.500;12.164;2022-08-06T06:34:19;6.97;;;3.58;;
17026;SDS011;8630;50.500;12.164;2022-08-06T06:36:53;4.32;;;2.30;;
17026;SDS011;8630;50.500;12.164;2022-08-06T06:39:27;2.75;;;2.08;;
17026;SDS011;8630;50.500;12.164;2022-08-06T06:41:58;2.15;;;1.10;;
17026;SDS011;8630;50.500;12.164;2022-08-06T06:44:34;2.17;;;1.10;;
17026;SDS011;8630;50.500;12.164;2022-08-06T06:47:05;2.13;;;1.17;;
17026;SDS011;8630;50.500;12.164;2022-08-06T06:49:43;2.15;;;1.70;;
17026;SDS011;8630;50.500;12.164;2022-08-06T06:52:14;1.98;;;1.00;;
17026;SDS011;8630;50.500;12.164;2022-08-06T06:54:48;6.55;;;4.03;;
17026;SDS011;8630;50.500;12.164;2022-08-06T06:57:20;3.05;;;1.20;;
17026;SDS011;8630;50.500;12.164;2022-08-06T06:59:56;6.22;;;3.55;;
17026;SDS011;8630;50.500;12.164;2022-08-06T07:02:27;1.20;;;1.13;;
17026;SDS011;8630;50.500;12.164;2022-08-06T07:05:01;5.45;;;3.40;;
17026;SDS011;8630;50.500;12.164;2022-08-06T07:07:29;6.55;;;2.97;;
17026;SDS011;8630;50.500;12.164;2022-08-06T07:09:58;1.05;;;0.93;;
17026;SDS011;8630;50.500;12.164;2022-08-06T07:12:27;11.32;;;5.38;;
17026;SDS011;8630;50.500;12.164;2022-08-06T07:14:57;2.63;;;0.90;;
17026;SDS011;8630;50.500;12.164;2022-08-06T07:17:26;17.35;;;3.00;;
17026;SDS011;8630;50.500;12.164;2022-08-06T07:19:56;2.95;;;1.52;;
17026;SDS011;8630;50.500;12.164;2022-08-06T07:22:27;1.67;;;1.40;;
17026;SDS011;8630;50.500;12.164;2022-08-06T07:24:58;2.00;;;1.27;;
17026;SDS011;8630;50.500;12.164;2022-08-06T07:27:26;5.07;;;1.40;;
17026;SDS011;8630;50.500;12.164;2022-08-06T07:29:59;9.30;;;3.75;;
17026;SDS011;8630;50.500;12.164;2022-08-06T07:32:28;3.33;;;2.40;;
17026;SDS011;8630;50.500;12.164;2022-08-06T07:34:55;3.97;;;3.60;;
17026;SDS011;8630;50.500;12.164;2022-08-06T07:37:23;2.92;;;1.02;;
17026;SDS011;8630;50.500;12.164;2022-08-06T07:39:53;1.58;;;0.90;;
17026;SDS011;8630;50.500;12.164;2022-08-06T07:42:22;1.23;;;1.00;;
17026;SDS011;8630;50.500;12.164;2022-08-06T07:44:51;1.65;;;1.10;;
17026;SDS011;8630;50.500;12.164;2022-08-06T07:47:20;1.02;;;0.77;;
17026;SDS011;8630;50.500;12.164;2022-08-06T07:49:53;5.35;;;3.72;;
17026;SDS011;8630;50.500;12.164;2022-08-06T07:52:23;1.30;;;0.95;;
17026;SDS011;8630;50.500;12.164;2022-08-06T07:54:54;0.75;;;0.68;;
17026;SDS011;8630;50.500;12.164;2022-08-06T07:57:24;2.53;;;1.33;;
17026;SDS011;8630;50.500;12.164;2022-08-06T07:59:51;5.43;;;2.25;;
17026;SDS011;8630;50.500;12.164;2022-08-06T08:02:19;2.75;;;0.90;;
17026;SDS011;8630;50.500;12.164;2022-08-06T08:04:47;2.25;;;0.63;;
17026;SDS011;8630;50.500;12.164;2022-08-06T08:07:31;0.65;;;0.60;;
17026;SDS011;8630;50.500;12.164;2022-08-06T08:10:00;1.45;;;1.00;;
17026;SDS011;8630;50.500;12.164;2022-08-06T08:12:28;2.53;;;0.93;;
17026;SDS011;8630;50.500;12.164;2022-08-06T08:14:56;1.08;;;0.80;;
17026;SDS011;8630;50.500;12.164;2022-08-06T08:17:24;4.20;;;3.42;;
17026;SDS011;8630;50.500;12.164;2022-08-06T08:19:52;1.77;;;0.90;;
17026;SDS011;8630;50.500;12.164;2022-08-06T08:22:19;3.78;;;3.30;;
17026;SDS011;8630;50.500;12.164;2022-08-06T08:24:47;3.97;;;3.10;;
17026;SDS011;8630;50.500;12.164;2022-08-06T08:27:16;1.80;;;1.08;;
17026;SDS011;8630;50.500;12.164;2022-08-06T08:29:43;1.92;;;0.90;;
17026;SDS011;8630;50.500;12.164;2022-08-06T08:32:10;1.27;;;1.00;;
17026;SDS011;8630;50.500;12.164;2022-08-06T08:34:38;1.90;;;1.02;;
17026;SDS011;8630;50.500;12.164;2022-08-06T08:37:05;10.63;;;3.78;;
17026;SDS011;8630;50.500;12.164;2022-08-06T08:39:33;1.40;;;0.90;;
17026;SDS011;8630;50.500;12.164;2022-08-06T08:42:02;1.45;;;0.90;;
17026;SDS011;8630;50.500;12.164;2022-08-06T08:44:33;3.20;;;2.97;;
17026;SDS011;8630;50.500;12.164;2022-08-06T08:47:01;1.60;;;1.50;;
17026;SDS011;8630;50.500;12.164;2022-08-06T08:49:32;1.58;;;0.80;;
17026;SDS011;8630;50.500;12.164;2022-08-06T08:52:04;3.65;;;2.25;;
17026;SDS011;8630;50.500;12.164;2022-08-06T08:54:36;4.30;;;2.75;;
17026;SDS011;8630;50.500;12.164;2022-08-06T08:57:06;1.38;;;0.73;;
17026;SDS011;8630;50.500;12.164;2022-08-06T08:59:36;1.85;;;0.70;;
17026;SDS011;8630;50.500;12.164;2022-08-06T09:02:05;0.65;;;0.60;;
17026;SDS011;8630;50.500;12.164;2022-08-06T09:04:33;0.90;;;0.70;;
17026;SDS011;8630;50.500;12.164;2022-08-06T09:07:01;0.88;;;0.65;;
17026;SDS011;8630;50.500;12.164;2022-08-06T09:09:28;3.15;;;1.15;;
17026;SDS011;8630;50.500;12.164;2022-08-06T09:12:00;0.77;;;0.70;;
17026;SDS011;8630;50.500;12.164;2022-08-06T09:14:27;1.17;;;1.08;;
17026;SDS011;8630;50.500;12.164;2022-08-06T09:16:56;2.38;;;1.02;;
17026;SDS011;8630;50.500;12.164;2022-08-06T09:19:24;1.98;;;1.67;;
17026;SDS011;8630;50.500;12.164;2022-08-06T09:21:54;1.23;;;0.77;;
17026;SDS011;8630;50.500;12.164;2022-08-06T09:24:21;0.60;;;0.60;;
17026;SDS011;8630;50.500;12.164;2022-08-06T09:27:02;1.05;;;0.80;;
17026;SDS011;8630;50.500;12.164;2022-08-06T09:29:30;3.50;;;0.93;;
17026;SDS011;8630;50.500;12.164;2022-08-06T09:31:59;0.60;;;0.60;;
17026;SDS011;8630;50.500;12.164;2022-08-06T09:34:33;2.90;;;2.47;;
17026;SDS011;8630;50.500;12.164;2022-08-06T09:37:02;10.35;;;4.65;;
17026;SDS011;8630;50.500;12.164;2022-08-06T09:39:29;1.08;;;0.50;;
17026;SDS011;8630;50.500;12.164;2022-08-06T09:41:58;2.28;;;1.00;;
17026;SDS011;8630;50.500;12.164;2022-08-06T09:44:26;1.77;;;0.50;;
17026;SDS011;8630;50.500;12.164;2022-08-06T09:46:53;0.70;;;0.60;;
17026;SDS011;8630;50.500;12.164;2022-08-06T09:49:24;0.63;;;0.63;;
17026;SDS011;8630;50.500;12.164;2022-08-06T09:51:54;5.10;;;4.22;;
17026;SDS011;8630;50.500;12.164;2022-08-06T09:54:36;0.60;;;0.60;;
17026;SDS011;8630;50.500;12.164;2022-08-06T09:57:04;0.73;;;0.68;;
17026;SDS011;8630;50.500;12.164;2022-08-06T09:59:40;1.60;;;1.00;;
17026;SDS011;8630;50.500;12.164;2022-08-06T10:02:11;1.58;;;0.70;;
17026;SDS011;8630;50.500;12.164;2022-08-06T10:04:41;2.20;;;1.90;;
17026;SDS011;8630;50.500;12.164;2022-08-06T10:07:08;2.65;;;1.40;;
17026;SDS011;8630;50.500;12.164;2022-08-06T10:09:35;2.67;;;0.65;;
17026;SDS011;8630;50.500;12.164;2022-08-06T10:12:10;1.38;;;0.63;;
17026;SDS011;8630;50.500;12.164;2022-08-06T10:14:43;7.50;;;1.95;;
17026;SDS011;8630;50.500;12.164;2022-08-06T10:17:11;3.88;;;1.63;;
17026;SDS011;8630;50.500;12.164;2022-08-06T10:19:41;2.70;;;0.93;;
17026;SDS011;8630;50.500;12.164;2022-08-06T10:22:11;2.00;;;1.88;;
17026;SDS011;8630;50.500;12.164;2022-08-06T10:24:40;1.15;;;0.40;;
17026;SDS011;8630;50.500;12.164;2022-08-06T10:27:09;3.13;;;2.45;;
17026;SDS011;8630;50.500;12.164;2022-08-06T10:29:40;0.40;;;0.40;;
17026;SDS011;8630;50.500;12.164;2022-08-06T10:32:09;0.47;;;0.40;;
17026;SDS011;8630;50.500;12.164;2022-08-06T10:34:43;0.73;;;0.40;;
17026;SDS011;8630;50.500;12.164;2022-08-06T10:37:14;1.05;;;0.50;;
17026;SDS011;8630;50.500;12.164;2022-08-06T10:39:46;0.40;;;0.30;;
17026;SDS011;8630;50.500;12.164;2022-08-06T10:42:16;2.42;;;0.50;;
17026;SDS011;8630;50.500;12.164;2022-08-06T10:44:44;0.47;;;0.47;;
17026;SDS011;8630;50.500;12.164;2022-08-06T10:47:12;1.98;;;0.47;;
17026;SDS011;8630;50.500;12.164;2022-08-06T10:49:40;3.13;;;0.90;;
17026;SDS011;8630;50.500;12.164;2022-08-06T10:52:10;1.30;;;0.50;;
17026;SDS011;8630;50.500;12.164;2022-08-06T10:54:37;1.25;;;0.50;;
17026;SDS011;8630;50.500;12.164;2022-08-06T10:57:06;4.07;;;2.58;;
17026;SDS011;8630;50.500;12.164;2022-08-06T10:59:33;2.40;;;0.55;;
17026;SDS011;8630;50.500;12.164;2022-08-06T11:02:02;0.68;;;0.52;;
17026;SDS011;8630;50.500;12.164;2022-08-06T11:04:38;0.50;;;0.40;;
17026;SDS011;8630;50.500;12.164;2022-08-06T11:07:20;0.98;;;0.50;;
17026;SDS011;8630;50.500;12.164;2022-08-06T11:13:04;1.20;;;0.40;;
17026;SDS011;8630;50.500;12.164;2022-08-06T11:15:37;0.75;;;0.50;;
17026;SDS011;8630;50.500;12.164;2022-08-06T11:18:07;0.40;;;0.40;;
17026;SDS011;8630;50.500;12.164;2022-08-06T11:20:38;1.70;;;1.60;;
17026;SDS011;8630;50.500;12.164;2022-08-06T11:23:26;9.35;;;1.85;;
17026;SDS011;8630;50.500;12.164;2022-08-06T11:25:56;2.28;;;2.08;;
17026;SDS011;8630;50.500;12.164;2022-08-06T11:31:30;1.02;;;0.40;;
17026;SDS011;8630;50.500;12.164;2022-08-06T11:34:00;0.73;;;0.45;;
17026;SDS011;8630;50.500;12.164;2022-08-06T11:36:43;0.80;;;0.40;;
17026;SDS011;8630;50.500;12.164;2022-08-06T11:39:12;3.33;;;2.05;;
17026;SDS011;8630;50.500;12.164;2022-08-06T11:41:47;0.80;;;0.40;;
17026;SDS011;8630;50.500;12.164;2022-08-06T11:44:16;16.55;;;4.68;;
17026;SDS011;8630;50.500;12.164;2022-08-06T11:46:44;0.93;;;0.50;;
17026;SDS011;8630;50.500;12.164;2022-08-06T11:49:17;0.30;;;0.30;;
17026;SDS011;8630;50.500;12.164;2022-08-06T11:51:47;0.80;;;0.60;;
17026;SDS011;8630;50.500;12.164;2022-08-06T11:54:18;2.53;;;1.95;;
17026;SDS011;8630;50.500;12.164;2022-08-06T11:59:45;0.90;;;0.60;;
17026;SDS011;8630;50.500;12.164;2022-08-06T12:02:47;1.38;;;0.45;;
17026;SDS011;8630;50.500;12.164;2022-08-06T12:05:35;1.65;;;0.45;;
17026;SDS011;8630;50.500;12.164;2022-08-06T12:08:11;1.48;;;0.43;;
17026;SDS011;8630;50.500;12.164;2022-08-06T12:13:47;1.13;;;0.43;;
17026;SDS011;8630;50.500;12.164;2022-08-06T12:16:28;1.42;;;0.30;;
17026;SDS011;8630;50.500;12.164;2022-08-06T12:18:56;0.30;;;0.30;;
17026;SDS011;8630;50.500;12.164;2022-08-06T12:21:23;0.40;;;0.40;;
17026;SDS011;8630;50.500;12.164;2022-08-06T12:23:53;0.38;;;0.38;;
17026;SDS011;8630;50.500;12.164;2022-08-06T12:26:20;1.63;;;0.50;;
17026;SDS011;8630;50.500;12.164;2022-08-06T12:28:48;1.25;;;0.70;;
17026;SDS011;8630;50.500;12.164;2022-08-06T12:31:27;0.93;;;0.43;;
17026;SDS011;8630;50.500;12.164;2022-08-06T12:33:55;0.50;;;0.50;;
17026;SDS011;8630;50.500;12.164;2022-08-06T12:36:26;3.83;;;2.38;;
17026;SDS011;8630;50.500;12.164;2022-08-06T12:38:57;0.77;;;0.50;;
17026;SDS011;8630;50.500;12.164;2022-08-06T12:41:33;2.17;;;0.60;;
17026;SDS011;8630;50.500;12.164;2022-08-06T12:44:02;0.50;;;0.50;;
17026;SDS011;8630;50.500;12.164;2022-08-06T12:46:29;0.30;;;0.30;;
17026;SDS011;8630;50.500;12.164;2022-08-06T12:48:57;1.42;;;0.63;;
17026;SDS011;8630;50.500;12.164;2022-08-06T12:51:24;0.63;;;0.40;;
17026;SDS011;8630;50.500;12.164;2022-08-06T12:53:52;1.10;;;0.40;;
17026;SDS011;8630;50.500;12.164;2022-08-06T12:56:23;1.17;;;0.40;;
17026;SDS011;8630;50.500;12.164;2022-08-06T12:58:51;0.40;;;0.38;;
17026;SDS011;8630;50.500;12.164;2022-08-06T13:01:20;1.10;;;0.30;;
17026;SDS011;8630;50.500;12.164;2022-08-06T13:03:50;0.55;;;0.40;;
17026;SDS011;8630;50.500;12.164;2022-08-06T13:06:22;2.20;;;0.43;;
17026;SDS011;8630;50.500;12.164;2022-08-06T13:08:51;1.55;;;0.40;;
17026;SDS011;8630;50.500;12.164;2022-08-06T13:11:19;1.15;;;0.28;;
17026;SDS011;8630;50.500;12.164;2022-08-06T13:13:56;0.88;;;0.60;;
17026;SDS011;8630;50.500;12.164;2022-08-06T13:16:36;0.55;;;0.40;;
17026;SDS011;8630;50.500;12.164;2022-08-06T13:19:05;0.98;;;0.40;;
17026;SDS011;8630;50.500;12.164;2022-08-06T13:21:33;2.35;;;0.47;;
17026;SDS011;8630;50.500;12.164;2022-08-06T13:24:01;0.30;;;0.30;;
17026;SDS011;8630;50.500;12.164;2022-08-06T13:26:31;1.95;;;0.40;;
17026;SDS011;8630;50.500;12.164;2022-08-06T13:29:16;0.80;;;0.40;;
17026;SDS011;8630;50.500;12.164;2022-08-06T13:31:45;0.40;;;0.40;;
17026;SDS011;8630;50.500;12.164;2022-08-06T13:34:14;0.30;;;0.30;;
17026;SDS011;8630;50.500;12.164;2022-08-06T13:36:43;5.22;;;4.05;;
17026;SDS011;8630;50.500;12.164;2022-08-06T13:39:19;0.73;;;0.40;;
17026;SDS011;8630;50.500;12.164;2022-08-06T13:41:47;2.63;;;0.40;;
17026;SDS011;8630;50.500;12.164;2022-08-06T13:44:33;0.30;;;0.30;;
17026;SDS011;8630;50.500;12.164;2022-08-06T13:47:03;3.10;;;1.23;;
17026;SDS011;8630;50.500;12.164;2022-08-06T13:49:30;1.30;;;0.30;;
17026;SDS011;8630;50.500;12.164;2022-08-06T13:52:00;0.45;;;0.40;;
17026;SDS011;8630;50.500;12.164;2022-08-06T13:54:27;0.60;;;0.30;;
17026;SDS011;8630;50.500;12.164;2022-08-06T13:56:55;1.17;;;0.50;;
17026;SDS011;8630;50.500;12.164;2022-08-06T13:59:23;0.57;;;0.47;;
17026;SDS011;8630;50.500;12.164;2022-08-06T14:01:56;1.50;;;0.50;;
17026;SDS011;8630;50.500;12.164;2022-08-06T14:04:24;1.85;;;0.60;;
17026;SDS011;8630;50.500;12.164;2022-08-06T14:06:53;0.55;;;0.43;;
17026;SDS011;8630;50.500;12.164;2022-08-06T14:09:22;0.68;;;0.20;;
17026;SDS011;8630;50.500;12.164;2022-08-06T14:11:53;1.45;;;0.40;;
17026;SDS011;8630;50.500;12.164;2022-08-06T14:14:21;0.80;;;0.40;;
17026;SDS011;8630;50.500;12.164;2022-08-06T14:16:49;0.45;;;0.30;;
17026;SDS011;8630;50.500;12.164;2022-08-06T14:19:18;4.90;;;2.05;;
17026;SDS011;8630;50.500;12.164;2022-08-06T14:21:45;2.42;;;0.50;;
17026;SDS011;8630;50.500;12.164;2022-08-06T14:24:12;5.65;;;2.35;;
17026;SDS011;8630;50.500;12.164;2022-08-06T14:26:39;3.08;;;2.88;;
17026;SDS011;8630;50.500;12.164;2022-08-06T14:29:06;0.43;;;0.40;;
17026;SDS011;8630;50.500;12.164;2022-08-06T14:31:33;0.55;;;0.40;;
17026;SDS011;8630;50.500;12.164;2022-08-06T14:34:01;0.75;;;0.32;;
17026;SDS011;8630;50.500;12.164;2022-08-06T14:36:30;2.50;;;0.68;;
17026;SDS011;8630;50.500;12.164;2022-08-06T14:38:57;0.80;;;0.50;;
17026;SDS011;8630;50.500;12.164;2022-08-06T14:41:25;2.42;;;2.22;;
17026;SDS011;8630;50.500;12.164;2022-08-06T14:44:09;3.00;;;0.40;;
17026;SDS011;8630;50.500;12.164;2022-08-06T14:46:54;2.28;;;0.32;;
17026;SDS011;8630;50.500;12.164;2022-08-06T14:49:22;0.65;;;0.52;;
17026;SDS011;8630;50.500;12.164;2022-08-06T14:51:50;0.35;;;0.30;;
17026;SDS011;8630;50.500;12.164;2022-08-06T14:54:18;5.65;;;2.20;;
17026;SDS011;8630;50.500;12.164;2022-08-06T14:56:45;0.98;;;0.30;;
17026;SDS011;8630;50.500;12.164;2022-08-06T14:59:13;0.70;;;0.52;;
17026;SDS011;8630;50.500;12.164;2022-08-06T15:01:40;0.30;;;0.30;;
17026;SDS011;8630;50.500;12.164;2022-08-06T15:04:07;5.05;;;3.47;;
17026;SDS011;8630;50.500;12.164;2022-08-06T15:06:34;0.57;;;0.40;;
17026;SDS011;8630;50.500;12.164;2022-08-06T15:09:03;3.60;;;1.38;;
17026;SDS011;8630;50.500;12.164;2022-08-06T15:11:30;0.47;;;0.40;;
17026;SDS011;8630;50.500;12.164;2022-08-06T15:13:57;1.15;;;0.50;;
17026;SDS011;8630;50.500;12.164;2022-08-06T15:16:25;0.40;;;0.40;;
17026;SDS011;8630;50.500;12.164;2022-08-06T15:18:52;0.30;;;0.30;;